WATT/KOE METAR and TAF weather

Enter ICAO airport designator
Station Type Date Time Source
WATT METAR 2020/06/03 21:30 UTC NOAA

WATT 032130Z 11011KT 8000 FEW016 25/19 Q1014 NOSIG


Station Type Date Time Source
WATT Decoded METAR 2020/06/03 21:30 UTC NOAA

Station name not available
Jun 03, 2020 - 05:30 PM EDT / 2020.06.03 2130 UTC
Wind: from the ESE (110 degrees) at 13 MPH (11 KT):0
Visibility: 4 mile(s):0
Sky conditions: mostly clear
Temperature: 77 F (25 C)
Dew Point: 66 F (19 C)
Relative Humidity: 69%
Pressure (altimeter): 29.94 in. Hg (1014 hPa)
ob: WATT 032130Z 11011KT 8000 FEW016 25/19 Q1014 NOSIG
cycle: 21

Station Type Date Time Source
WATT TAF 2020/06/03 18:00 UTC NOAA

TAF WATT 031700Z 0318/0418 12010KT 8000 FEW017
BECMG 0403/0405 10017KT

Example: see airport list